Time;durP1;ratioP1;P1;durP2;ratioP2;P2;SDS_P1;SDS_P2;PMS_P1;PMS_P2;Temp;Humidity;BMP_temperature;BMP_pressure;BME280_temperature;BME280_humidity;BME280_pressure;Samples;Min_cycle;Max_cycle;Signal;HPM_P1;HPM_P2
2022/10/18 00:00:12;;;;;;;24.67;13.93;;;;;;;;;;4944490;29;20486;-75
2022/10/18 00:02:58;;;;;;;24.42;13.10;;;;;;;;;;4938978;29;20043;-76
2022/10/18 00:05:43;;;;;;;22.38;11.68;;;;;;;;;;4938427;29;20478;-77
2022/10/18 00:08:29;;;;;;;23.65;11.40;;;;;;;;;;4939425;29;20052;-77
2022/10/18 00:11:15;;;;;;;19.73;10.95;;;;;;;;;;4945513;29;20497;-76
2022/10/18 00:14:00;;;;;;;19.48;11.07;;;;;;;;;;4938877;29;20035;-76
2022/10/18 00:16:46;;;;;;;18.80;10.52;;;;;;;;;;4937854;29;20413;-76
2022/10/18 00:19:33;;;;;;;19.02;10.75;;;;;;;;;;4944023;29;20052;-76
2022/10/18 00:22:21;;;;;;;18.42;10.63;;;;;;;;;;4938570;29;20063;-78
2022/10/18 00:25:09;;;;;;;16.73;10.80;;;;;;;;;;4938388;29;20040;-79
2022/10/18 00:27:54;;;;;;;19.63;11.45;;;;;;;;;;4945013;29;20047;-76
2022/10/18 00:30:41;;;;;;;16.48;10.52;;;;;;;;;;4944864;29;20044;-78
2022/10/18 00:33:26;;;;;;;16.33;10.02;;;;;;;;;;4938465;29;20051;-77
2022/10/18 00:36:13;;;;;;;14.98;9.40;;;;;;;;;;4944851;29;20390;-76
2022/10/18 00:39:02;;;;;;;20.13;9.68;;;;;;;;;;4938706;29;20390;-77
2022/10/18 00:41:48;;;;;;;18.50;9.60;;;;;;;;;;4938609;29;20506;-77
2022/10/18 00:44:37;;;;;;;16.50;10.65;;;;;;;;;;4938242;29;20502;-77
2022/10/18 00:47:23;;;;;;;13.48;8.40;;;;;;;;;;4938374;29;20047;-76
2022/10/18 00:50:12;;;;;;;12.30;8.30;;;;;;;;;;4937879;29;20052;-77
2022/10/18 00:53:01;;;;;;;12.90;8.43;;;;;;;;;;4938178;29;20048;-76
2022/10/18 00:55:47;;;;;;;13.65;8.43;;;;;;;;;;4938400;29;20397;-77
2022/10/18 00:58:33;;;;;;;14.95;8.30;;;;;;;;;;4943500;29;20043;-77
2022/10/18 01:01:20;;;;;;;13.10;8.55;;;;;;;;;;4938179;29;20047;-76
2022/10/18 01:04:05;;;;;;;14.70;8.52;;;;;;;;;;4937651;29;20405;-77
2022/10/18 01:07:08;;;;;;;15.48;9.13;;;;;;;;;;4937983;29;20486;-77
2022/10/18 01:09:59;;;;;;;12.13;8.38;;;;;;;;;;4937854;29;20485;-78
2022/10/18 01:13:03;;;;;;;13.05;8.00;;;;;;;;;;4939629;29;20047;-77
2022/10/18 01:16:13;;;;;;;12.25;7.63;;;;;;;;;;4937082;29;20389;-78
2022/10/18 01:19:29;;;;;;;13.75;8.48;;;;;;;;;;4937565;29;20048;-77
2022/10/18 01:22:22;;;;;;;;;;;;;;;;;;4944405;29;20047;-77
2022/10/18 01:25:32;;;;;;;12.80;7.70;;;;;;;;;;4937110;29;19919;-77
2022/10/18 01:28:36;;;;;;;12.80;8.63;;;;;;;;;;4943971;29;20035;-77
2022/10/18 01:31:29;;;;;;;15.48;8.48;;;;;;;;;;4937288;29;20047;-77
2022/10/18 01:34:16;;;;;;;15.18;8.75;;;;;;;;;;4937364;29;20044;-76
2022/10/18 01:37:06;;;;;;;13.00;7.82;;;;;;;;;;4937324;29;20055;-76
2022/10/18 01:39:55;;;;;;;15.82;8.38;;;;;;;;;;4937206;29;20044;-76
2022/10/18 01:42:42;;;;;;;12.10;7.47;;;;;;;;;;4943381;29;20051;-76
2022/10/18 01:45:29;;;;;;;13.38;6.82;;;;;;;;;;4936816;29;20055;-77
2022/10/18 01:48:16;;;;;;;11.23;7.07;;;;;;;;;;4937215;29;20051;-77
2022/10/18 01:51:01;;;;;;;13.65;7.72;;;;;;;;;;4937011;29;20048;-76
2022/10/18 01:53:47;;;;;;;13.15;7.50;;;;;;;;;;4935718;29;20439;-77
2022/10/18 01:56:50;;;;;;;17.08;8.70;;;;;;;;;;4936925;29;20044;-77
2022/10/18 01:59:54;;;;;;;23.20;11.60;;;;;;;;;;4936915;29;20422;-76
2022/10/18 02:02:55;;;;;;;30.25;11.68;;;;;;;;;;4936869;29;20040;-78
2022/10/18 02:05:53;;;;;;;24.35;12.52;;;;;;;;;;4931750;29;20039;-78
2022/10/18 02:09:16;;;;;;;20.45;11.85;;;;;;;;;;4936737;29;20044;-78
2022/10/18 02:12:02;;;;;;;22.85;11.75;;;;;;;;;;4900296;29;20044;-77
2022/10/18 02:14:49;;;;;;;22.60;11.95;;;;;;;;;;4936501;29;20032;-76
2022/10/18 02:17:38;;;;;;;14.98;8.98;;;;;;;;;;4936826;29;20043;-77
2022/10/18 02:20:27;;;;;;;13.05;8.20;;;;;;;;;;4936397;29;20036;-78
2022/10/18 02:23:15;;;;;;;21.45;9.30;;;;;;;;;;4936491;29;20051;-77
2022/10/18 02:26:01;;;;;;;20.75;9.90;;;;;;;;;;4936789;29;20051;-77
2022/10/18 02:28:47;;;;;;;17.13;9.35;;;;;;;;;;4942443;29;20039;-77
2022/10/18 02:32:17;;;;;;;17.30;9.45;;;;;;;;;;4936656;29;20043;-77
2022/10/18 02:35:02;;;;;;;14.75;7.60;;;;;;;;;;4898603;29;20485;-77
2022/10/18 02:37:49;;;;;;;16.42;8.35;;;;;;;;;;4936493;29;20047;-77
2022/10/18 02:40:35;;;;;;;16.17;8.55;;;;;;;;;;4936596;29;20051;-77
2022/10/18 02:43:23;;;;;;;19.33;10.02;;;;;;;;;;4936170;29;20043;-77
2022/10/18 02:46:09;;;;;;;25.70;8.88;;;;;;;;;;4936559;29;20039;-77
2022/10/18 02:48:54;;;;;;;17.15;9.55;;;;;;;;;;4936387;29;20043;-77
2022/10/18 02:51:39;;;;;;;17.50;9.55;;;;;;;;;;4935854;29;20055;-78
2022/10/18 02:54:24;;;;;;;19.67;8.85;;;;;;;;;;4936752;29;20040;-78
2022/10/18 02:57:10;;;;;;;16.33;9.73;;;;;;;;;;4936088;29;20051;-77
2022/10/18 02:59:55;;;;;;;18.67;9.38;;;;;;;;;;4936087;29;20044;-78
2022/10/18 03:02:41;;;;;;;15.40;8.75;;;;;;;;;;4935985;29;20043;-77
2022/10/18 03:05:26;;;;;;;14.70;8.15;;;;;;;;;;4935801;29;20043;-78
2022/10/18 03:08:12;;;;;;;18.70;8.90;;;;;;;;;;4942513;29;20047;-77
2022/10/18 03:10:58;;;;;;;18.05;9.02;;;;;;;;;;4935973;29;20051;-77
2022/10/18 03:13:43;;;;;;;13.43;8.07;;;;;;;;;;4936105;29;20486;-77
2022/10/18 03:16:29;;;;;;;12.90;7.65;;;;;;;;;;4942237;29;20405;-78
2022/10/18 03:19:14;;;;;;;20.15;8.00;;;;;;;;;;4936028;29;20051;-77
2022/10/18 03:22:00;;;;;;;14.48;7.50;;;;;;;;;;4935967;29;20044;-78
2022/10/18 03:24:45;;;;;;;13.77;8.10;;;;;;;;;;4942070;29;20048;-77
2022/10/18 03:27:31;;;;;;;15.02;7.30;;;;;;;;;;4935869;29;20036;-77
2022/10/18 03:30:17;;;;;;;12.65;6.80;;;;;;;;;;4942268;29;20047;-77
2022/10/18 03:33:02;;;;;;;12.23;7.15;;;;;;;;;;4935956;29;20043;-78
2022/10/18 03:35:48;;;;;;;17.27;9.00;;;;;;;;;;4921952;29;20043;-78
2022/10/18 03:38:32;;;;;;;21.10;9.38;;;;;;;;;;4935563;29;20043;-77
2022/10/18 03:41:19;;;;;;;16.30;8.68;;;;;;;;;;4939705;29;20077;-77
2022/10/18 03:44:05;;;;;;;14.50;8.55;;;;;;;;;;4939164;29;20048;-77
2022/10/18 03:46:50;;;;;;;12.30;6.90;;;;;;;;;;4939490;29;20059;-77
2022/10/18 03:49:36;;;;;;;9.13;5.95;;;;;;;;;;4939531;29;20411;-77
2022/10/18 03:52:21;;;;;;;8.50;5.78;;;;;;;;;;4945576;29;20043;-76
2022/10/18 03:55:07;;;;;;;10.70;7.28;;;;;;;;;;4939148;29;20048;-76
2022/10/18 03:57:53;;;;;;;13.55;6.90;;;;;;;;;;4939081;29;20044;-77
2022/10/18 04:00:38;;;;;;;14.82;7.47;;;;;;;;;;4939071;29;20043;-76
2022/10/18 04:03:24;;;;;;;15.93;7.13;;;;;;;;;;4938854;29;20051;-76
2022/10/18 04:06:09;;;;;;;13.82;7.70;;;;;;;;;;4938988;29;20044;-77
2022/10/18 04:08:55;;;;;;;12.88;8.00;;;;;;;;;;4938882;29;20052;-76
2022/10/18 04:11:40;;;;;;;14.50;7.80;;;;;;;;;;4944133;29;20398;-76
2022/10/18 04:14:25;;;;;;;14.95;8.38;;;;;;;;;;4938633;29;20407;-76
2022/10/18 04:17:10;;;;;;;17.42;9.90;;;;;;;;;;4937820;29;20498;-77
2022/10/18 04:19:55;;;;;;;23.48;11.88;;;;;;;;;;4938474;29;20035;-77
2022/10/18 04:22:41;;;;;;;25.00;13.60;;;;;;;;;;4938682;29;20039;-77
2022/10/18 04:25:28;;;;;;;36.00;14.60;;;;;;;;;;4938067;29;20052;-78
2022/10/18 04:28:13;;;;;;;24.55;13.15;;;;;;;;;;4938426;29;20039;-78
2022/10/18 04:30:59;;;;;;;27.02;13.40;;;;;;;;;;4938618;29;20405;-76
2022/10/18 04:33:44;;;;;;;24.30;12.95;;;;;;;;;;4938404;29;20040;-77
2022/10/18 04:36:30;;;;;;;25.35;12.38;;;;;;;;;;4938554;29;20052;-78
2022/10/18 04:39:15;;;;;;;29.38;15.95;;;;;;;;;;4938411;29;20048;-78
2022/10/18 04:42:01;;;;;;;26.35;15.98;;;;;;;;;;4938334;29;20055;-78
2022/10/18 04:44:47;;;;;;;26.75;15.68;;;;;;;;;;4938340;29;20039;-78
2022/10/18 04:47:33;;;;;;;30.27;16.23;;;;;;;;;;4938011;29;20055;-78
2022/10/18 04:50:18;;;;;;;56.25;24.63;;;;;;;;;;4937679;29;20047;-77
2022/10/18 04:53:03;;;;;;;52.38;24.13;;;;;;;;;;4944341;29;20131;-77
2022/10/18 04:55:50;;;;;;;51.20;21.92;;;;;;;;;;4944304;29;20051;-78
2022/10/18 04:58:35;;;;;;;53.40;21.92;;;;;;;;;;4937729;29;20047;-77
2022/10/18 05:01:20;;;;;;;46.08;20.85;;;;;;;;;;4937936;29;20051;-78
2022/10/18 05:04:06;;;;;;;40.90;19.42;;;;;;;;;;4937744;29;20398;-78
2022/10/18 05:06:51;;;;;;;28.63;13.82;;;;;;;;;;4937667;29;20466;-78
2022/10/18 05:09:37;;;;;;;28.10;15.93;;;;;;;;;;4937616;29;20517;-78
2022/10/18 05:12:23;;;;;;;29.10;15.18;;;;;;;;;;4937668;29;20043;-77
2022/10/18 05:15:09;;;;;;;28.30;16.23;;;;;;;;;;4937892;29;20048;-76
2022/10/18 05:17:55;;;;;;;29.85;15.82;;;;;;;;;;4937857;29;20056;-76
2022/10/18 05:20:40;;;;;;;26.23;15.95;;;;;;;;;;4936158;29;20409;-78
2022/10/18 05:23:26;;;;;;;34.25;18.95;;;;;;;;;;4937248;29;20044;-77
2022/10/18 05:26:11;;;;;;;28.73;17.45;;;;;;;;;;4936413;29;20043;-77
2022/10/18 05:28:56;;;;;;;30.70;17.48;;;;;;;;;;4936969;29;20052;-77
2022/10/18 05:31:42;;;;;;;39.88;20.55;;;;;;;;;;4942122;29;20052;-77
2022/10/18 05:34:30;;;;;;;30.02;14.40;;;;;;;;;;4943791;29;20039;-77
2022/10/18 05:37:16;;;;;;;29.10;14.82;;;;;;;;;;4943788;29;20051;-77
2022/10/18 05:40:01;;;;;;;22.98;11.50;;;;;;;;;;4937286;29;20490;-77
2022/10/18 05:42:50;;;;;;;19.38;10.43;;;;;;;;;;4937261;29;20047;-77
2022/10/18 05:45:35;;;;;;;24.67;11.18;;;;;;;;;;4937272;29;20473;-76
2022/10/18 05:48:21;;;;;;;27.67;11.82;;;;;;;;;;4937162;29;20055;-76
2022/10/18 05:51:07;;;;;;;22.98;12.00;;;;;;;;;;4936871;29;20418;-76
2022/10/18 05:53:53;;;;;;;18.23;11.70;;;;;;;;;;4937125;29;20043;-77
2022/10/18 05:56:39;;;;;;;19.98;13.15;;;;;;;;;;4937632;29;20036;-78
2022/10/18 05:59:24;;;;;;;24.13;13.38;;;;;;;;;;4936637;29;20047;-78
2022/10/18 06:02:11;;;;;;;29.88;17.33;;;;;;;;;;4935592;29;20048;-77
2022/10/18 06:04:56;;;;;;;33.63;18.23;;;;;;;;;;4943091;29;20052;-77
2022/10/18 06:07:42;;;;;;;25.67;15.05;;;;;;;;;;4936777;29;20051;-77
2022/10/18 06:10:28;;;;;;;29.83;15.40;;;;;;;;;;4937082;29;20047;-76
2022/10/18 06:13:13;;;;;;;22.40;15.43;;;;;;;;;;4929279;29;20044;-77
2022/10/18 06:15:59;;;;;;;28.92;14.60;;;;;;;;;;4943016;29;20043;-77
2022/10/18 06:18:49;;;;;;;27.77;15.07;;;;;;;;;;4936538;29;20048;-76
2022/10/18 06:21:35;;;;;;;22.38;14.23;;;;;;;;;;4936699;29;20048;-77
2022/10/18 06:24:21;;;;;;;23.75;14.18;;;;;;;;;;4936672;29;20047;-77
2022/10/18 06:27:09;;;;;;;28.92;14.07;;;;;;;;;;4936329;29;20047;-77
2022/10/18 06:29:55;;;;;;;23.08;13.57;;;;;;;;;;4942857;29;20047;-77
2022/10/18 06:32:40;;;;;;;25.88;15.10;;;;;;;;;;4942879;29;20443;-77
2022/10/18 06:35:26;;;;;;;27.45;15.45;;;;;;;;;;4936534;29;20036;-79
2022/10/18 06:38:12;;;;;;;27.35;15.38;;;;;;;;;;4936547;29;20043;-79
2022/10/18 06:40:58;;;;;;;31.10;16.23;;;;;;;;;;4939384;29;20043;-78
2022/10/18 06:43:47;;;;;;;31.30;17.33;;;;;;;;;;4936779;29;20055;-77
2022/10/18 06:46:33;;;;;;;34.47;16.25;;;;;;;;;;4937166;29;20043;-76
2022/10/18 06:49:18;;;;;;;33.10;17.35;;;;;;;;;;4943285;29;20065;-76
2022/10/18 06:52:06;;;;;;;31.92;17.95;;;;;;;;;;4936751;29;20052;-77
2022/10/18 06:54:52;;;;;;;29.98;18.48;;;;;;;;;;4937322;29;20040;-76
2022/10/18 06:57:38;;;;;;;33.60;17.88;;;;;;;;;;4937480;29;20043;-77
2022/10/18 07:00:23;;;;;;;38.13;20.88;;;;;;;;;;4943406;29;20455;-81
2022/10/18 07:03:09;;;;;;;41.33;22.40;;;;;;;;;;4942492;29;20044;-80
2022/10/18 07:05:59;;;;;;;36.08;21.17;;;;;;;;;;4942251;29;20052;-78
2022/10/18 07:08:47;;;;;;;42.10;20.85;;;;;;;;;;4936089;29;20498;-82
2022/10/18 07:11:32;;;;;;;40.80;22.25;;;;;;;;;;4936465;29;20059;-78
2022/10/18 07:14:18;;;;;;;31.00;18.83;;;;;;;;;;4936558;29;20481;-79
2022/10/18 07:17:04;;;;;;;31.88;19.40;;;;;;;;;;4939916;29;20048;-78
2022/10/18 07:19:49;;;;;;;33.50;19.85;;;;;;;;;;4940019;29;20043;-80
2022/10/18 07:22:36;;;;;;;37.53;21.65;;;;;;;;;;4939860;29;20047;-81
2022/10/18 07:25:22;;;;;;;31.27;18.63;;;;;;;;;;4938649;29;20048;-78
2022/10/18 07:28:07;;;;;;;33.35;21.10;;;;;;;;;;4939852;29;20055;-79
2022/10/18 07:30:53;;;;;;;47.72;22.70;;;;;;;;;;4940190;29;20063;-77
2022/10/18 07:33:38;;;;;;;41.58;25.50;;;;;;;;;;4939239;29;20048;-77
2022/10/18 07:36:24;;;;;;;35.47;21.98;;;;;;;;;;4947627;29;20047;-77
2022/10/18 07:39:09;;;;;;;38.13;21.58;;;;;;;;;;4944169;29;20048;-78
2022/10/18 07:41:55;;;;;;;37.30;18.05;;;;;;;;;;4943845;29;20051;-78
2022/10/18 07:44:41;;;;;;;36.90;18.75;;;;;;;;;;4942555;29;20478;-77
2022/10/18 07:47:26;;;;;;;28.55;16.48;;;;;;;;;;4949850;29;20043;-77
2022/10/18 07:50:12;;;;;;;32.47;18.17;;;;;;;;;;4944004;29;20055;-76
2022/10/18 07:52:57;;;;;;;33.20;18.48;;;;;;;;;;4942894;29;20052;-76
2022/10/18 07:55:43;;;;;;;43.00;20.38;;;;;;;;;;4942882;29;20051;-76
2022/10/18 07:58:31;;;;;;;38.95;20.30;;;;;;;;;;4942778;29;20048;-76
2022/10/18 08:01:17;;;;;;;36.95;19.85;;;;;;;;;;4950161;29;20485;-76
2022/10/18 08:04:03;;;;;;;39.25;20.83;;;;;;;;;;4942016;29;20043;-76
2022/10/18 08:06:48;;;;;;;36.17;16.45;;;;;;;;;;4938863;29;20032;-76
2022/10/18 08:09:34;;;;;;;29.50;14.48;;;;;;;;;;4939000;29;20039;-76
2022/10/18 08:12:19;;;;;;;26.40;16.23;;;;;;;;;;4938763;29;20051;-75
2022/10/18 08:15:05;;;;;;;31.95;14.15;;;;;;;;;;4938931;29;20486;-76
2022/10/18 08:17:51;;;;;;;28.02;12.98;;;;;;;;;;4938890;29;20047;-77
2022/10/18 08:20:57;;;;;;;23.52;11.10;;;;;;;;;;4938859;29;20051;-77
2022/10/18 08:23:43;;;;;;;24.42;11.73;;;;;;;;;;4937515;29;20055;-76
2022/10/18 08:26:28;;;;;;;27.63;14.18;;;;;;;;;;4937546;29;20404;-78
2022/10/18 08:29:14;;;;;;;29.27;13.80;;;;;;;;;;4938368;29;20047;-77
2022/10/18 08:31:59;;;;;;;28.75;14.40;;;;;;;;;;4938352;29;20040;-80
2022/10/18 08:34:44;;;;;;;30.05;12.95;;;;;;;;;;4944909;29;20416;-78
2022/10/18 08:37:30;;;;;;;25.73;13.60;;;;;;;;;;4938627;29;20485;-79
2022/10/18 08:40:15;;;;;;;22.90;13.60;;;;;;;;;;4938246;29;20052;-78
2022/10/18 08:43:07;;;;;;;23.73;14.15;;;;;;;;;;4938552;29;20051;-79
2022/10/18 08:45:54;;;;;;;26.60;13.32;;;;;;;;;;4944715;29;20494;-76
2022/10/18 08:48:43;;;;;;;31.25;14.60;;;;;;;;;;4933086;29;20053;-76
2022/10/18 08:51:29;;;;;;;28.35;13.82;;;;;;;;;;4937882;29;20497;-77
2022/10/18 08:54:23;;;;;;;26.17;14.13;;;;;;;;;;4938119;29;20051;-77
2022/10/18 08:57:13;;;;;;;29.02;13.85;;;;;;;;;;4943682;29;20044;-77
2022/10/18 09:00:00;;;;;;;24.00;12.93;;;;;;;;;;4937912;29;20051;-77
2022/10/18 09:02:59;;;;;;;24.33;13.23;;;;;;;;;;4937995;29;20043;-77
2022/10/18 09:05:55;;;;;;;143.73;78.70;;;;;;;;;;4937797;29;20052;-77
2022/10/18 09:09:10;;;;;;;50.17;27.83;;;;;;;;;;4944238;29;20039;-77
2022/10/18 09:12:33;;;;;;;190.25;120.93;;;;;;;;;;4937462;29;20044;-78
2022/10/18 09:15:32;;;;;;;42.20;25.65;;;;;;;;;;4943946;29;20043;-77
2022/10/18 09:18:40;;;;;;;26.83;17.23;;;;;;;;;;4944199;29;20474;-77
2022/10/18 09:21:41;;;;;;;33.95;16.85;;;;;;;;;;4937519;29;20043;-77
2022/10/18 09:24:43;;;;;;;33.95;16.73;;;;;;;;;;4943957;29;20043;-78
2022/10/18 09:27:40;;;;;;;24.50;15.23;;;;;;;;;;4937375;29;20044;-77
2022/10/18 09:30:52;;;;;;;28.23;14.85;;;;;;;;;;4937690;29;20043;-77
2022/10/18 09:33:52;;;;;;;26.00;14.65;;;;;;;;;;4913728;29;20047;-77
2022/10/18 09:36:38;;;;;;;23.33;14.57;;;;;;;;;;4936930;29;20490;-77
2022/10/18 09:39:30;;;;;;;23.80;14.77;;;;;;;;;;4937137;29;20047;-77
2022/10/18 09:42:25;;;;;;;22.40;12.90;;;;;;;;;;4937032;29;20059;-77
2022/10/18 09:45:38;;;;;;;21.17;13.10;;;;;;;;;;4937300;29;20040;-77
2022/10/18 09:48:30;;;;;;;22.98;12.40;;;;;;;;;;4943765;29;20051;-78
2022/10/18 09:51:21;;;;;;;18.85;11.75;;;;;;;;;;4938197;29;20421;-78
2022/10/18 09:54:29;;;;;;;21.75;12.20;;;;;;;;;;4937134;29;20055;-78
2022/10/18 09:57:34;;;;;;;16.95;11.35;;;;;;;;;;4936857;29;20043;-78
2022/10/18 10:00:31;;;;;;;19.58;11.10;;;;;;;;;;4936924;29;20055;-78
2022/10/18 10:03:17;;;;;;;14.95;7.72;;;;;;;;;;4936804;29;20039;-78
2022/10/18 10:06:15;;;;;;;7.80;3.58;;;;;;;;;;4943059;29;20044;-78
2022/10/18 10:09:13;;;;;;;11.18;4.15;;;;;;;;;;4936788;29;20043;-78
2022/10/18 10:11:58;;;;;;;6.88;3.53;;;;;;;;;;4936771;29;20044;-78
2022/10/18 10:14:44;;;;;;;8.00;4.35;;;;;;;;;;4936634;29;20043;-78
2022/10/18 10:17:32;;;;;;;8.10;4.40;;;;;;;;;;4936575;29;20039;-78
2022/10/18 10:20:20;;;;;;;7.65;4.43;;;;;;;;;;4936680;29;20489;-78
2022/10/18 10:23:28;;;;;;;11.10;4.47;;;;;;;;;;4942924;29;20051;-78
2022/10/18 10:26:23;;;;;;;6.03;3.47;;;;;;;;;;4943013;29;20044;-77
2022/10/18 10:29:44;;;;;;;8.18;4.28;;;;;;;;;;4936596;29;20493;-78
2022/10/18 10:32:44;;;;;;;8.85;4.22;;;;;;;;;;4922658;29;20043;-77
2022/10/18 10:35:39;;;;;;;14.70;5.00;;;;;;;;;;4935736;29;20048;-78
2022/10/18 10:38:25;;;;;;;8.82;3.88;;;;;;;;;;4936431;29;20051;-77
2022/10/18 10:41:21;;;;;;;6.25;3.92;;;;;;;;;;4936610;29;20047;-78
2022/10/18 10:44:18;;;;;;;4.72;2.65;;;;;;;;;;4942723;29;20051;-78
2022/10/18 10:47:05;;;;;;;2.92;2.15;;;;;;;;;;4936303;29;20386;-77
2022/10/18 10:49:54;;;;;;;6.43;2.60;;;;;;;;;;4936361;29;20047;-79
2022/10/18 10:52:42;;;;;;;4.97;2.97;;;;;;;;;;4936285;29;20052;-78
2022/10/18 10:55:33;;;;;;;7.50;4.40;;;;;;;;;;4942598;29;20044;-79
2022/10/18 10:58:18;;;;;;;8.82;3.95;;;;;;;;;;4942600;29;20051;-77
2022/10/18 11:01:26;;;;;;;6.28;3.70;;;;;;;;;;4936203;29;20497;-78
2022/10/18 11:04:24;;;;;;;7.55;3.40;;;;;;;;;;4934124;29;20044;-78
2022/10/18 11:07:34;;;;;;;8.00;3.55;;;;;;;;;;4935622;29;20043;-78
2022/10/18 11:10:27;;;;;;;12.55;3.90;;;;;;;;;;4936403;29;20051;-78
2022/10/18 11:13:57;;;;;;;8.50;4.72;;;;;;;;;;4936050;29;20048;-78
2022/10/18 11:17:06;;;;;;;6.78;4.15;;;;;;;;;;4930064;29;20047;-78
2022/10/18 11:20:01;;;;;;;11.55;4.60;;;;;;;;;;4936290;29;20401;-77
2022/10/18 11:23:00;;;;;;;10.05;4.43;;;;;;;;;;4931897;29;20052;-79
2022/10/18 11:26:07;;;;;;;11.35;4.70;;;;;;;;;;4935942;29;20043;-77
2022/10/18 11:29:17;;;;;;;13.60;4.53;;;;;;;;;;4932669;29;20510;-78
2022/10/18 11:32:31;;;;;;;7.13;4.03;;;;;;;;;;4936247;29;20040;-77
2022/10/18 11:35:19;;;;;;;8.98;3.92;;;;;;;;;;4941084;29;20048;-78
2022/10/18 11:38:21;;;;;;;9.57;4.15;;;;;;;;;;4935992;29;20373;-78
2022/10/18 11:41:37;;;;;;;8.18;4.50;;;;;;;;;;4935884;29;20052;-79
2022/10/18 11:44:32;;;;;;;5.80;3.78;;;;;;;;;;4935631;29;20039;-78
2022/10/18 11:47:56;;;;;;;12.60;4.03;;;;;;;;;;4941710;29;20043;-77
2022/10/18 11:50:50;;;;;;;9.95;4.20;;;;;;;;;;4935651;29;20051;-78
2022/10/18 11:53:54;;;;;;;8.32;4.20;;;;;;;;;;4935727;29;20051;-78
2022/10/18 11:56:58;;;;;;;8.57;4.30;;;;;;;;;;4935623;29;20043;-77
2022/10/18 12:00:13;;;;;;;8.43;4.15;;;;;;;;;;4935915;29;20398;-77
2022/10/18 12:03:29;;;;;;;9.93;4.38;;;;;;;;;;4939047;29;20043;-76
2022/10/18 12:06:19;;;;;;;10.60;4.38;;;;;;;;;;4939120;29;20055;-78
2022/10/18 12:09:35;;;;;;;10.25;4.60;;;;;;;;;;4938775;29;20044;-78
2022/10/18 12:12:28;;;;;;;11.07;4.70;;;;;;;;;;4939215;29;20044;-77
2022/10/18 12:15:23;;;;;;;13.20;4.10;;;;;;;;;;4938685;29;20442;-77
2022/10/18 12:18:17;;;;;;;8.73;3.75;;;;;;;;;;4938945;29;20051;-76
2022/10/18 12:21:05;;;;;;;13.38;4.05;;;;;;;;;;4938882;29;20056;-77
2022/10/18 12:23:58;;;;;;;7.20;4.07;;;;;;;;;;4938205;29;20060;-79
2022/10/18 12:26:47;;;;;;;;;;;;;;;;;;4939010;29;20044;-76
2022/10/18 12:29:57;;;;;;;9.27;4.00;;;;;;;;;;4938320;29;19915;-78
2022/10/18 12:32:42;;;;;;;9.52;4.28;;;;;;;;;;4938545;29;20393;-76
2022/10/18 12:35:36;;;;;;;7.35;3.97;;;;;;;;;;4938688;29;20059;-77
2022/10/18 12:38:29;;;;;;;13.23;4.70;;;;;;;;;;4923979;29;20052;-77
2022/10/18 12:41:27;;;;;;;8.10;4.55;;;;;;;;;;4938764;29;20059;-77
2022/10/18 12:44:28;;;;;;;17.15;5.00;;;;;;;;;;4938226;29;20051;-78
2022/10/18 12:47:22;;;;;;;12.02;4.40;;;;;;;;;;4943626;29;20055;-78
2022/10/18 12:50:34;;;;;;;10.55;4.55;;;;;;;;;;4938197;29;20493;-79
2022/10/18 12:53:25;;;;;;;11.23;4.47;;;;;;;;;;4938088;29;20047;-77
2022/10/18 12:56:40;;;;;;;8.10;4.15;;;;;;;;;;4944287;29;20044;-77
2022/10/18 12:59:25;;;;;;;7.63;4.05;;;;;;;;;;4944335;29;20040;-76
2022/10/18 13:02:20;;;;;;;10.63;6.13;;;;;;;;;;4943100;29;20047;-77
2022/10/18 13:05:53;;;;;;;12.93;5.20;;;;;;;;;;4929985;29;20488;-75
2022/10/18 13:08:40;;;;;;;10.73;5.60;;;;;;;;;;4944188;29;20051;-76
2022/10/18 13:11:32;;;;;;;16.05;6.78;;;;;;;;;;4937612;29;20051;-78
2022/10/18 13:15:08;;;;;;;18.02;6.63;;;;;;;;;;4937629;29;20059;-77
2022/10/18 13:18:18;;;;;;;12.25;6.75;;;;;;;;;;4915546;29;20059;-77
2022/10/18 13:21:30;;;;;;;8.90;5.13;;;;;;;;;;4943933;29;20059;-78
2022/10/18 13:24:23;;;;;;;11.15;6.55;;;;;;;;;;4908696;29;20055;-77
2022/10/18 13:27:32;;;;;;;9.73;5.60;;;;;;;;;;4937079;29;20044;-77
2022/10/18 13:30:32;;;;;;;6.65;4.50;;;;;;;;;;4937780;29;20039;-77
2022/10/18 13:33:29;;;;;;;8.18;4.68;;;;;;;;;;4937464;29;20051;-78
2022/10/18 13:36:28;;;;;;;9.18;4.95;;;;;;;;;;4937787;29;20055;-78
2022/10/18 13:39:23;;;;;;;8.18;5.15;;;;;;;;;;4937327;29;20402;-78
2022/10/18 13:42:28;;;;;;;8.75;4.90;;;;;;;;;;4943528;29;20051;-77
2022/10/18 13:45:32;;;;;;;16.38;5.88;;;;;;;;;;4936979;29;20048;-77
2022/10/18 13:48:29;;;;;;;6.75;4.13;;;;;;;;;;4937145;29;20497;-77
2022/10/18 13:51:28;;;;;;;10.45;4.35;;;;;;;;;;4937070;29;20051;-77
2022/10/18 13:54:13;;;;;;;10.05;4.78;;;;;;;;;;4943394;29;20051;-79
2022/10/18 13:57:17;;;;;;;9.35;4.80;;;;;;;;;;4937242;29;20405;-78
2022/10/18 14:00:37;;;;;;;8.15;4.50;;;;;;;;;;4936942;29;20482;-77
2022/10/18 14:03:42;;;;;;;16.35;4.75;;;;;;;;;;4937142;29;20047;-77
2022/10/18 14:06:34;;;;;;;11.10;4.55;;;;;;;;;;4936637;29;20056;-77
2022/10/18 14:09:27;;;;;;;13.55;4.40;;;;;;;;;;4942998;29;20059;-76
2022/10/18 14:12:31;;;;;;;9.85;4.40;;;;;;;;;;4936529;29;20039;-77
2022/10/18 14:15:24;;;;;;;11.45;5.15;;;;;;;;;;4937189;29;20051;-76
2022/10/18 14:18:17;;;;;;;10.13;4.95;;;;;;;;;;4937021;29;20043;-80
2022/10/18 14:21:15;;;;;;;10.68;6.15;;;;;;;;;;4937931;29;20056;-78
2022/10/18 14:24:01;;;;;;;7.00;5.07;;;;;;;;;;4936345;29;20047;-77
2022/10/18 14:27:14;;;;;;;11.27;4.63;;;;;;;;;;4936600;29;20040;-76
2022/10/18 14:30:15;;;;;;;11.63;4.93;;;;;;;;;;4936418;29;20048;-77
2022/10/18 14:33:01;;;;;;;7.10;5.25;;;;;;;;;;4936455;29;20039;-76
2022/10/18 14:35:58;;;;;;;10.07;5.28;;;;;;;;;;4936083;29;20051;-76
2022/10/18 14:38:50;;;;;;;17.70;5.28;;;;;;;;;;4936494;29;20051;-77
2022/10/18 14:41:46;;;;;;;7.22;4.80;;;;;;;;;;4936692;29;20059;-78
2022/10/18 14:44:31;;;;;;;11.23;5.10;;;;;;;;;;4936310;29;20040;-77
2022/10/18 14:47:25;;;;;;;10.40;5.65;;;;;;;;;;4942489;29;20035;-77
2022/10/18 14:50:21;;;;;;;24.50;12.10;;;;;;;;;;4936099;29;20482;-78
2022/10/18 14:53:12;;;;;;;21.88;8.85;;;;;;;;;;4935976;29;20047;-78
2022/10/18 14:56:00;;;;;;;45.35;22.70;;;;;;;;;;4942548;29;20048;-78
2022/10/18 14:58:44;;;;;;;22.83;12.65;;;;;;;;;;4936251;29;20047;-77
2022/10/18 15:01:31;;;;;;;18.50;7.85;;;;;;;;;;4936365;29;20407;-77
2022/10/18 15:04:17;;;;;;;19.23;8.18;;;;;;;;;;4936028;29;20043;-77
2022/10/18 15:07:06;;;;;;;18.80;8.15;;;;;;;;;;4942015;29;20048;-76
2022/10/18 15:09:52;;;;;;;22.00;9.32;;;;;;;;;;4942484;29;20039;-78
2022/10/18 15:12:40;;;;;;;21.90;12.95;;;;;;;;;;4942277;29;20485;-76
2022/10/18 15:15:31;;;;;;;19.17;12.82;;;;;;;;;;4942889;29;20051;-77
2022/10/18 15:18:22;;;;;;;21.85;9.45;;;;;;;;;;4942243;29;20394;-77
2022/10/18 15:21:21;;;;;;;21.52;12.88;;;;;;;;;;4936133;29;20460;-78
2022/10/18 15:24:29;;;;;;;25.00;11.85;;;;;;;;;;4935976;29;20051;-76
2022/10/18 15:27:29;;;;;;;24.83;10.75;;;;;;;;;;4935659;29;20044;-77
2022/10/18 15:30:19;;;;;;;18.00;9.65;;;;;;;;;;4935674;29;20055;-76
2022/10/18 15:33:09;;;;;;;21.77;10.30;;;;;;;;;;4942219;29;20047;-77
2022/10/18 15:35:55;;;;;;;21.80;11.35;;;;;;;;;;4936865;29;20047;-76
2022/10/18 15:38:40;;;;;;;23.17;11.77;;;;;;;;;;4945617;29;20051;-77
2022/10/18 15:41:43;;;;;;;21.42;12.40;;;;;;;;;;4945785;29;20040;-76
2022/10/18 15:44:33;;;;;;;34.25;19.27;;;;;;;;;;4945661;29;20040;-77
2022/10/18 15:47:20;;;;;;;33.60;19.38;;;;;;;;;;4945253;29;20043;-78
2022/10/18 15:50:35;;;;;;;41.55;25.48;;;;;;;;;;4944450;29;20159;-77
2022/10/18 15:53:21;;;;;;;41.80;22.70;;;;;;;;;;4945384;29;20043;-76
2022/10/18 15:56:28;;;;;;;41.00;21.02;;;;;;;;;;4938877;29;20270;-78
2022/10/18 15:59:26;;;;;;;28.63;15.80;;;;;;;;;;4938923;29;20047;-77
2022/10/18 16:02:13;;;;;;;31.33;16.98;;;;;;;;;;4938951;29;20055;-78
2022/10/18 16:05:00;;;;;;;49.17;29.92;;;;;;;;;;4945349;29;20047;-77
2022/10/18 16:07:50;;;;;;;53.75;28.42;;;;;;;;;;4938562;29;20040;-79
2022/10/18 16:10:36;;;;;;;38.00;21.48;;;;;;;;;;4944159;29;20051;-78
2022/10/18 16:13:21;;;;;;;38.00;22.52;;;;;;;;;;4945104;29;20043;-78
2022/10/18 16:16:12;;;;;;;51.03;24.95;;;;;;;;;;4945326;29;20047;-78
2022/10/18 16:18:58;;;;;;;51.47;26.48;;;;;;;;;;4938814;29;20493;-77
2022/10/18 16:21:44;;;;;;;51.88;27.17;;;;;;;;;;4938635;29;20040;-78
2022/10/18 16:24:29;;;;;;;65.85;30.45;;;;;;;;;;4945102;29;20039;-77
2022/10/18 16:27:15;;;;;;;58.35;33.35;;;;;;;;;;4944479;29;20052;-77
2022/10/18 16:30:01;;;;;;;89.72;48.20;;;;;;;;;;4938155;29;20039;-77
2022/10/18 16:32:47;;;;;;;77.03;41.28;;;;;;;;;;4944762;29;20401;-77
2022/10/18 16:35:34;;;;;;;68.18;35.38;;;;;;;;;;4945004;29;20047;-77
2022/10/18 16:38:40;;;;;;;57.50;33.92;;;;;;;;;;4944864;29;20048;-77
2022/10/18 16:41:25;;;;;;;56.80;34.97;;;;;;;;;;4944758;29;20043;-75
2022/10/18 16:44:11;;;;;;;78.30;44.85;;;;;;;;;;4938161;29;20389;-76
2022/10/18 16:46:56;;;;;;;77.15;44.40;;;;;;;;;;4937423;29;20040;-77
2022/10/18 16:49:43;;;;;;;82.20;44.10;;;;;;;;;;4944274;29;20486;-78